CheckWX is a tool to help pilots better visualize weather data.  It is not intended as a substitute for an official pre-flight weather briefing.

05:43:18 UTC

EDDM METAR
Munich International Airport
Munich, Germany
Current

23 mins ago

EDDM 200520Z 21002KT 9999 OVC032 05/03 Q1023 NOSIG
Observed
Feb-20 @ 05:20 UTC
Wind
  • 210° at 2 KTS
Visibility
10,000+ meters
Flight Rules
VFR
Cloud Levels
  • Overcast at 3,200' AGL
Temperature
C / 41°F
Dewpoint
C / 37°F
Humidity
87%
Altimeter
30.21" Hg
Pressure
1022.92 hPa
Previous

53 mins ago

EDDM 200450Z 24003KT 9999 OVC032 05/03 Q1022 NOSIG
Observed
Feb-20 @ 04:50 UTC
Wind
  • 240° at 3 KTS
Visibility
10,000+ meters
Flight Rules
VFR
Cloud Levels
  • Overcast at 3,200' AGL
Temperature
C / 41°F
Dewpoint
C / 37°F
Humidity
87%
Altimeter
30.18" Hg
Pressure
1021.92 hPa
Previous

1 hour ago

EDDM 200420Z 24002KT 9999 OVC033 05/03 Q1022 NOSIG
Observed
Feb-20 @ 04:20 UTC
Wind
  • 240° at 2 KTS
Visibility
10,000+ meters
Flight Rules
VFR
Cloud Levels
  • Overcast at 3,300' AGL
Temperature
C / 41°F
Dewpoint
C / 37°F
Humidity
87%
Altimeter
30.18" Hg
Pressure
1021.92 hPa